Terminal Aerodrome Forecast
Issued by NWS Mt. Holly, NJ

Home | Current Version | Previous Version | Text Only | Print | Product List | Glossary On
Versions: 1 2 3 4 5 6 7 8 9 10 11 12 13 14 15
000
FTUS41 KPHI 280522
TAFTTN
TAF
KTTN 280522Z 2806/2906 22006KT P6SM FEW200
      TEMPO 2806/2810 2SM BR BKN006
     FM281000 21005KT 3SM BR BKN025
     FM281500 27008KT P6SM SCT050
     FM290000 33005KT P6SM SCT200=

USA.gov is the U.S. government's official web portal to all federal, state and local government web resources and services.